Time;durP1;ratioP1;P1;durP2;ratioP2;P2;SDS_P1;SDS_P2;PMS_P1;PMS_P2;Temp;Humidity;BMP_temperature;BMP_pressure;BME280_temperature;BME280_humidity;BME280_pressure;Samples;Min_cycle;Max_cycle;Signal;HPM_P1;HPM_P2
2023/12/04 00:02:02;;;;;;;0.00;0.00;;;;;;;6.59;100.00;98736.22;4822807;29;20161;-79
2023/12/04 00:04:38;;;;;;;;;;;;;;;;;;;;;
2023/12/04 00:11:21;;;;;;;0.00;0.00;;;;;;;6.73;100.00;98726.34;4760029;30;20130;-77
2023/12/04 00:14:03;;;;;;;0.00;0.00;;;;;;;6.23;100.00;98630.53;4754676;30;20052;-77
2023/12/04 00:16:29;;;;;;;0.00;0.00;;;;;;;6.67;100.00;98697.56;4730317;30;20051;-78
2023/12/04 00:18:55;;;;;;;0.00;0.00;;;;;;;6.72;100.00;98696.75;4746344;30;20707;-77
2023/12/04 00:21:20;;;;;;;0.00;0.00;;;;;;;6.44;100.00;98648.31;4738049;30;20035;-77
2023/12/04 00:23:53;;;;;;;0.00;0.00;;;;;;;6.70;100.00;98699.75;4741967;30;20024;-76
2023/12/04 00:26:19;;;;;;;0.00;0.00;;;;;;;6.50;100.00;98656.41;4763971;30;20031;-77
2023/12/04 00:28:44;;;;;;;0.00;0.00;;;;;;;6.49;100.00;98639.31;4773140;30;20050;-77
2023/12/04 00:31:10;;;;;;;0.00;0.00;;;;;;;6.49;100.00;98627.66;4766949;29;20046;-76
2023/12/04 00:33:36;;;;;;;0.00;0.00;;;;;;;6.57;100.00;98640.59;4816331;29;20121;-78
2023/12/04 00:36:10;;;;;;;0.00;0.00;;;;;;;6.62;100.00;98659.59;4816531;29;20117;-76
2023/12/04 00:38:35;;;;;;;0.00;0.00;;;;;;;6.58;100.00;98620.50;4799522;29;20035;-77
2023/12/04 00:41:01;;;;;;;0.00;0.00;;;;;;;6.63;100.00;98624.00;4815743;29;20125;-76
2023/12/04 00:43:26;;;;;;;0.00;0.00;;;;;;;6.38;100.00;98578.03;4813447;29;20127;-75
2023/12/04 00:45:52;;;;;;;0.00;0.00;;;;;;;6.54;100.00;98603.97;4801813;29;20060;-76
2023/12/04 00:48:17;;;;;;;0.00;0.00;;;;;;;6.40;100.00;98592.16;4816821;29;20463;-76
2023/12/04 00:50:43;;;;;;;0.00;0.00;;;;;;;6.60;100.00;98612.88;4800111;29;20113;-77
2023/12/04 00:53:08;;;;;;;0.00;0.00;;;;;;;6.51;100.00;98582.00;4819052;29;20038;-76
2023/12/04 00:55:37;;;;;;;0.00;0.00;;;;;;;6.61;100.00;98603.66;4817273;29;20026;-78
2023/12/04 00:58:05;;;;;;;0.00;0.00;;;;;;;6.51;100.00;98587.44;4813334;29;20030;-75
2023/12/04 01:00:33;;;;;;;0.00;0.00;;;;;;;6.31;100.00;98556.66;4818244;29;20190;-77
2023/12/04 01:03:06;;;;;;;0.00;0.00;;;;;;;6.65;100.00;98582.97;4816174;29;20214;-77
2023/12/04 01:05:31;;;;;;;0.00;0.00;;;;;;;6.64;100.00;98573.19;4799706;29;20099;-77
2023/12/04 01:08:07;;;;;;;0.00;0.00;;;;;;;6.59;100.00;98552.31;4814243;29;20062;-77
2023/12/04 01:11:09;;;;;;;;;;;;;;;;;;;;;
2023/12/04 01:13:24;;;;;;;0.00;0.00;;;;;;;6.71;100.00;98554.66;4806689;29;20034;-77
2023/12/04 01:15:50;;;;;;;0.00;0.00;;;;;;;6.75;100.00;98558.44;4815253;29;20042;-77
2023/12/04 01:18:23;;;;;;;0.10;0.10;;;;;;;6.46;100.00;98502.19;4810187;29;20065;-76
2023/12/04 01:20:49;;;;;;;0.10;0.10;;;;;;;6.50;100.00;98504.34;4803550;29;20034;-76
2023/12/04 01:23:14;;;;;;;0.00;0.00;;;;;;;6.62;100.00;98523.78;4814312;29;21588;-77
2023/12/04 01:25:44;;;;;;;0.00;0.00;;;;;;;6.55;100.00;98509.72;4799578;29;20469;-77
2023/12/04 01:28:20;;;;;;;;;;;;;;;;;;;;;
2023/12/04 01:30:50;;;;;;;0.00;0.00;;;;;;;6.61;100.00;98503.16;4817010;29;20032;-77
2023/12/04 01:33:18;;;;;;;0.00;0.00;;;;;;;6.76;100.00;98532.91;4815259;29;20034;-76
2023/12/04 01:35:45;;;;;;;0.00;0.00;;;;;;;6.57;100.00;98504.81;4798153;29;20030;-77
2023/12/04 01:38:11;;;;;;;0.00;0.00;;;;;;;6.43;100.00;98493.81;4815093;29;20026;-75
2023/12/04 01:40:37;;;;;;;0.00;0.00;;;;;;;6.60;100.00;98509.66;4822029;29;20034;-75
2023/12/04 01:43:02;;;;;;;0.00;0.00;;;;;;;6.69;100.00;98515.28;4799308;29;20043;-76
2023/12/04 01:45:30;;;;;;;0.00;0.00;;;;;;;6.73;100.00;98502.75;4816994;29;20038;-75
2023/12/04 01:47:56;;;;;;;0.00;0.00;;;;;;;6.60;100.00;98499.63;4821907;29;20030;-75
2023/12/04 01:50:22;;;;;;;0.00;0.00;;;;;;;6.45;100.00;98492.47;4821563;29;20575;-74
2023/12/04 01:52:49;;;;;;;0.00;0.00;;;;;;;6.43;100.00;98520.97;4803130;29;20125;-74
2023/12/04 01:55:15;;;;;;;0.00;0.00;;;;;;;6.34;100.00;98465.66;4815092;29;20787;-75
2023/12/04 01:57:43;;;;;;;0.00;0.00;;;;;;;6.59;100.00;98480.91;4819227;29;20034;-78
2023/12/04 02:00:17;;;;;;;0.00;0.00;;;;;;;6.42;100.00;98449.56;4803224;29;20033;-78
2023/12/04 02:02:53;;;;;;;0.00;0.00;;;;;;;6.54;100.00;98459.22;4815004;29;20506;-77
2023/12/04 02:05:22;;;;;;;0.00;0.00;;;;;;;6.45;100.00;98446.28;4816516;29;20034;-78
2023/12/04 02:10:45;;;;;;;0.00;0.00;;;;;;;6.35;100.00;98432.00;4809474;29;20038;-78
2023/12/04 02:13:23;;;;;;;;;;;;;;;;;;;;;
2023/12/04 02:16:21;;;;;;;0.03;0.03;;;;;;;6.28;100.00;98391.63;4816881;29;20030;-78
2023/12/04 02:18:56;;;;;;;0.00;0.00;;;;;;;6.58;100.00;98446.69;4794331;29;20141;-78
2023/12/04 02:21:38;;;;;;;0.00;0.00;;;;;;;6.49;100.00;98430.22;4821403;29;20071;-78
2023/12/04 02:24:04;;;;;;;0.00;0.00;;;;;;;6.58;100.00;98466.50;4815789;29;20034;-78
2023/12/04 02:26:47;;;;;;;0.00;0.00;;;;;;;6.19;100.00;98380.59;4813986;29;20091;-78
2023/12/04 02:29:56;;;;;;;0.00;0.00;;;;;;;6.18;100.00;98361.88;4799315;29;20123;-78
2023/12/04 02:39:23;;;;;;;0.00;0.00;;;;;;;6.55;100.00;98388.34;4809982;29;20045;-79
2023/12/04 02:42:05;;;;;;;0.00;0.00;;;;;;;6.70;100.00;98428.09;4814801;29;20065;-77
2023/12/04 02:44:41;;;;;;;0.00;0.00;;;;;;;6.64;100.00;98410.22;4804150;29;20602;-78
2023/12/04 02:47:16;;;;;;;0.00;0.00;;;;;;;6.38;100.00;98372.53;4813538;29;20041;-79
2023/12/04 02:49:46;;;;;;;0.00;0.00;;;;;;;6.44;100.00;98387.66;4817097;29;20036;-76
2023/12/04 02:52:13;;;;;;;0.00;0.00;;;;;;;6.55;100.00;98392.97;4815342;29;20041;-76
2023/12/04 02:54:39;;;;;;;0.00;0.00;;;;;;;6.54;100.00;98383.19;4815434;29;20030;-77
2023/12/04 02:57:07;;;;;;;0.10;0.10;;;;;;;6.54;100.00;98383.19;4817165;29;20030;-77
2023/12/04 02:59:52;;;;;;;0.00;0.00;;;;;;;6.81;100.00;98410.56;4815939;29;20027;-78
2023/12/04 03:02:17;;;;;;;;;;;;;;;6.90;100.00;98413.44;4782842;29;20077;-77
2023/12/04 03:04:45;;;;;;;0.00;0.00;;;;;;;6.67;100.00;98371.63;4814716;29;20272;-77
2023/12/04 03:07:23;;;;;;;0.00;0.00;;;;;;;6.92;100.00;98410.44;4809422;29;20058;-78
2023/12/04 03:10:02;;;;;;;;;;;;;;;;;;;;;
2023/12/04 03:12:28;;;;;;;0.00;0.00;;;;;;;6.70;100.00;98357.47;4820058;29;20060;-78
2023/12/04 03:15:03;;;;;;;0.00;0.00;;;;;;;6.71;100.00;98356.38;4816363;29;20549;-76
2023/12/04 03:18:08;;;;;;;0.00;0.00;;;;;;;6.55;100.00;98319.66;4802295;29;20122;-78
2023/12/04 03:20:32;;;;;;;0.00;0.00;;;;;;;6.63;100.00;98321.72;4819043;29;20177;-78
2023/12/04 03:23:21;;;;;;;0.00;0.00;;;;;;;6.72;100.00;98322.69;4804223;29;20025;-77
2023/12/04 03:25:46;;;;;;;0.00;0.00;;;;;;;7.02;100.00;98369.53;4799409;29;20421;-77
2023/12/04 03:28:15;;;;;;;0.00;0.00;;;;;;;7.04;100.00;98363.81;4819152;29;20117;-76
2023/12/04 03:30:51;;;;;;;;;;;;;;;;;;;;;
2023/12/04 03:33:19;;;;;;;0.10;0.10;;;;;;;6.73;100.00;98283.56;4817170;29;20030;-77
2023/12/04 03:35:47;;;;;;;0.00;0.00;;;;;;;6.90;100.00;98312.13;4824730;29;20053;-78
2023/12/04 03:38:45;;;;;;;;;;;;;;;;;;;;;
2023/12/04 03:41:23;;;;;;;0.00;0.00;;;;;;;6.90;100.00;98304.75;4817913;29;20056;-79
2023/12/04 03:43:48;;;;;;;0.00;0.00;;;;;;;6.91;100.00;98314.53;4817862;29;20053;-77
2023/12/04 03:46:13;;;;;;;0.00;0.00;;;;;;;6.60;100.00;98262.53;4798577;29;20044;-78
2023/12/04 03:49:09;;;;;;;0.10;0.10;;;;;;;6.71;100.00;98268.66;4815808;29;20493;-78
2023/12/04 03:51:37;;;;;;;0.00;0.00;;;;;;;6.97;100.00;98312.56;4796297;29;20042;-76
2023/12/04 03:54:02;;;;;;;0.00;0.00;;;;;;;6.77;100.00;98281.06;4818487;29;20058;-76
2023/12/04 03:56:28;;;;;;;0.00;0.00;;;;;;;6.81;100.00;98285.59;4817429;29;20146;-77
2023/12/04 03:58:53;;;;;;;0.00;0.00;;;;;;;6.80;100.00;98278.56;4821234;29;20049;-77
2023/12/04 04:01:19;;;;;;;0.00;0.00;;;;;;;6.83;100.00;98282.59;4814844;29;20050;-78
2023/12/04 04:03:46;;;;;;;0.10;0.10;;;;;;;6.90;100.00;98287.66;4809909;29;20026;-77
2023/12/04 04:06:19;;;;;;;0.10;0.10;;;;;;;6.92;100.00;98282.72;4825414;29;20028;-78
2023/12/04 04:08:44;;;;;;;0.00;0.00;;;;;;;7.07;100.00;98290.66;4816743;29;20027;-78
2023/12/04 04:12:06;;;;;;;0.00;0.00;;;;;;;6.71;100.00;98244.19;4786525;29;20043;-78
2023/12/04 04:14:33;;;;;;;0.00;0.00;;;;;;;6.76;100.00;98244.94;4816299;29;20126;-77
2023/12/04 04:17:06;;;;;;;0.00;0.00;;;;;;;7.16;100.00;98302.47;4798815;29;20113;-78
2023/12/04 04:19:58;;;;;;;0.00;0.00;;;;;;;6.72;100.00;98224.91;4823613;29;20034;-79
2023/12/04 04:22:39;;;;;;;;;;;;;;;;;;;;;
2023/12/04 04:25:10;;;;;;;0.00;0.00;;;;;;;7.14;100.00;98285.66;4818893;29;20026;-78
2023/12/04 04:27:51;;;;;;;;;;;;;;;;;;;;;
2023/12/04 04:30:32;;;;;;;0.00;0.00;;;;;;;6.88;100.00;98235.50;4825090;29;20046;-78
2023/12/04 04:33:45;;;;;;;0.00;0.00;;;;;;;6.73;100.00;98214.81;4820071;29;20084;-78
2023/12/04 04:36:09;;;;;;;0.00;0.00;;;;;;;6.92;100.00;98233.81;4814513;29;20064;-77
2023/12/04 04:38:44;;;;;;;0.00;0.00;;;;;;;6.95;100.00;98249.53;4802437;29;20087;-77
2023/12/04 04:41:16;;;;;;;0.00;0.00;;;;;;;7.05;100.00;98270.31;4815641;29;20042;-77
2023/12/04 04:43:42;;;;;;;0.00;0.00;;;;;;;7.15;100.00;98265.56;4820576;29;20100;-77
2023/12/04 04:46:07;;;;;;;0.00;0.00;;;;;;;7.06;100.00;98248.28;4802312;29;20038;-77
2023/12/04 04:48:33;;;;;;;0.00;0.00;;;;;;;7.08;100.00;98243.38;4804976;29;20027;-78
2023/12/04 04:51:06;;;;;;;0.00;0.00;;;;;;;7.25;100.00;98263.75;4805481;29;20057;-77
2023/12/04 04:53:31;;;;;;;0.00;0.00;;;;;;;7.28;100.00;98263.16;4804270;29;20031;-77
2023/12/04 04:55:57;;;;;;;0.00;0.00;;;;;;;6.92;100.00;98206.66;4821582;29;20070;-77
2023/12/04 04:58:22;;;;;;;0.00;0.00;;;;;;;7.01;100.00;98214.94;4804477;29;20091;-77
2023/12/04 05:00:51;;;;;;;0.00;0.00;;;;;;;7.02;100.00;98197.53;4802479;29;20050;-77
2023/12/04 05:03:17;;;;;;;0.00;0.00;;;;;;;7.33;100.00;98230.47;4812829;29;20478;-76
2023/12/04 05:05:45;;;;;;;0.00;0.00;;;;;;;7.27;100.00;98216.16;4791335;29;20046;-77
2023/12/04 05:08:20;;;;;;;0.00;0.00;;;;;;;7.28;100.00;98214.22;4814038;29;20061;-77
2023/12/04 05:10:53;;;;;;;0.00;0.00;;;;;;;7.28;100.00;98217.75;4815042;29;20054;-78
2023/12/04 05:13:20;;;;;;;0.00;0.00;;;;;;;7.23;100.00;98196.09;4816721;29;20065;-77
2023/12/04 05:15:46;;;;;;;0.00;0.00;;;;;;;7.44;100.00;98226.44;4817525;29;20025;-79
2023/12/04 05:18:16;;;;;;;0.00;0.00;;;;;;;7.45;100.00;98230.78;4820454;29;20026;-77
2023/12/04 05:20:44;;;;;;;0.00;0.00;;;;;;;7.19;100.00;98186.91;4823273;29;20095;-77
2023/12/04 05:23:09;;;;;;;0.00;0.00;;;;;;;7.51;100.00;98226.88;4800977;29;20037;-76
2023/12/04 05:25:35;;;;;;;0.00;0.00;;;;;;;7.41;100.00;98208.00;4815000;29;20034;-77
2023/12/04 05:28:03;;;;;;;0.10;0.10;;;;;;;7.39;100.00;98223.81;4815294;29;20117;-77
2023/12/04 05:30:37;;;;;;;0.00;0.00;;;;;;;7.58;100.00;98241.97;4806143;29;20526;-77
2023/12/04 05:33:03;;;;;;;0.00;0.00;;;;;;;7.50;100.00;98222.56;4816570;29;20033;-76
2023/12/04 05:35:28;;;;;;;0.00;0.00;;;;;;;7.47;100.00;98204.09;4815367;29;20031;-77
2023/12/04 05:38:01;;;;;;;0.00;0.00;;;;;;;7.65;100.00;98228.78;4787073;29;20351;-78
2023/12/04 05:40:27;;;;;;;0.00;0.00;;;;;;;7.56;100.00;98208.84;4825148;29;20074;-76
2023/12/04 05:42:52;;;;;;;0.00;0.00;;;;;;;7.61;100.00;98233.25;4800938;29;20139;-78
2023/12/04 05:45:36;;;;;;;0.00;0.00;;;;;;;7.65;100.00;98224.19;4801891;29;20405;-78
2023/12/04 05:48:02;;;;;;;0.00;0.00;;;;;;;7.24;100.00;98164.28;4824427;29;20022;-78
2023/12/04 05:50:30;;;;;;;0.00;0.00;;;;;;;7.25;100.00;98160.47;4817054;29;20040;-77
2023/12/04 05:53:03;;;;;;;0.00;0.00;;;;;;;7.60;100.00;98205.22;4823796;29;20025;-79
2023/12/04 05:55:28;;;;;;;0.00;0.00;;;;;;;7.47;100.00;98179.59;4826022;29;20460;-77
2023/12/04 05:57:56;;;;;;;0.00;0.00;;;;;;;7.50;100.00;98187.19;4808825;29;20148;-77
2023/12/04 06:00:27;;;;;;;0.00;0.00;;;;;;;7.57;100.00;98189.50;4804984;29;20038;-77
2023/12/04 06:02:53;;;;;;;0.00;0.00;;;;;;;7.58;100.00;98184.84;4798769;29;20451;-78
2023/12/04 06:05:23;;;;;;;0.00;0.00;;;;;;;7.65;100.00;98193.44;4798218;29;20030;-79
2023/12/04 06:07:49;;;;;;;0.00;0.00;;;;;;;7.84;100.00;98202.31;4817516;29;20022;-78
2023/12/04 06:10:17;;;;;;;0.00;0.00;;;;;;;7.66;100.00;98181.44;4816267;29;20030;-78
2023/12/04 06:12:42;;;;;;;0.00;0.00;;;;;;;7.80;100.00;98204.03;4816622;29;20101;-79
2023/12/04 06:15:08;;;;;;;0.00;0.00;;;;;;;7.71;100.00;98177.81;4800828;29;20130;-77
2023/12/04 06:17:41;;;;;;;0.00;0.00;;;;;;;7.70;100.00;98177.03;4786611;29;20397;-79
2023/12/04 06:20:07;;;;;;;0.03;0.03;;;;;;;7.68;100.00;98160.19;4816715;29;20042;-78
2023/12/04 06:22:32;;;;;;;0.00;0.00;;;;;;;7.77;100.00;98174.72;4797443;29;20117;-77
2023/12/04 06:25:01;;;;;;;0.00;0.00;;;;;;;7.78;100.00;98159.19;4818378;29;20454;-77
2023/12/04 06:27:38;;;;;;;0.00;0.00;;;;;;;7.94;100.00;98181.44;4801797;29;20091;-77
2023/12/04 06:30:07;;;;;;;0.00;0.00;;;;;;;7.85;100.00;98163.09;4819984;29;20046;-76
2023/12/04 06:32:33;;;;;;;0.00;0.00;;;;;;;7.90;100.00;98178.53;4820218;29;20038;-78
2023/12/04 06:35:01;;;;;;;0.00;0.00;;;;;;;7.89;100.00;98168.75;4793205;29;20033;-78
2023/12/04 06:37:32;;;;;;;0.00;0.00;;;;;;;7.86;100.00;98172.09;4820678;29;20057;-78
2023/12/04 06:40:03;;;;;;;0.00;0.00;;;;;;;7.95;100.00;98185.78;4820204;29;20022;-76
2023/12/04 06:42:36;;;;;;;0.00;0.00;;;;;;;7.74;100.00;98145.38;4818118;29;20027;-79
2023/12/04 06:45:02;;;;;;;0.00;0.00;;;;;;;7.90;100.00;98164.09;4813992;29;20038;-79
2023/12/04 06:47:42;;;;;;;0.00;0.00;;;;;;;7.89;100.00;98166.03;4826149;29;20023;-79
2023/12/04 06:50:08;;;;;;;0.00;0.00;;;;;;;7.95;100.00;98161.28;4801010;29;20467;-78
2023/12/04 06:52:40;;;;;;;0.10;0.10;;;;;;;7.93;100.00;98158.88;4807304;29;20839;-76
2023/12/04 06:55:06;;;;;;;0.00;0.00;;;;;;;8.01;100.00;98157.34;4795563;29;20094;-78
2023/12/04 06:57:54;;;;;;;0.00;0.00;;;;;;;7.82;100.00;98141.94;4813541;29;20386;-79
2023/12/04 07:00:20;;;;;;;0.00;0.00;;;;;;;8.09;100.00;98162.09;4788446;29;20030;-78
2023/12/04 07:02:46;;;;;;;0.00;0.00;;;;;;;8.26;100.00;98176.97;4815033;29;20410;-76
2023/12/04 07:05:35;;;;;;;0.00;0.00;;;;;;;8.33;100.00;98172.72;4807952;29;20617;-81
2023/12/04 07:08:13;;;;;;;;;;;;;;;;;;;;;
2023/12/04 07:10:54;;;;;;;0.00;0.00;;;;;;;8.15;100.00;98139.09;4820428;29;20041;-82
2023/12/04 07:13:42;;;;;;;0.00;0.00;;;;;;;8.41;100.00;98167.66;4800858;29;20111;-78
2023/12/04 07:16:17;;;;;;;0.00;0.00;;;;;;;8.18;100.00;98118.63;4796028;29;20046;-77
2023/12/04 07:18:45;;;;;;;0.00;0.00;;;;;;;8.30;100.00;98135.22;4801439;29;20066;-80
2023/12/04 07:21:11;;;;;;;0.10;0.10;;;;;;;8.47;100.00;98153.66;4799533;29;20082;-80
2023/12/04 07:23:37;;;;;;;0.00;0.00;;;;;;;8.37;100.00;98140.25;4819970;29;20026;-81
2023/12/04 07:26:03;;;;;;;0.00;0.00;;;;;;;8.54;100.00;98154.03;4802719;29;20042;-80
2023/12/04 07:28:32;;;;;;;0.00;0.00;;;;;;;8.45;100.00;98136.81;4808016;29;20061;-79
2023/12/04 07:30:57;;;;;;;0.03;0.03;;;;;;;8.37;100.00;98129.34;4821277;29;20041;-79
2023/12/04 07:33:33;;;;;;;0.10;0.10;;;;;;;8.36;100.00;98125.00;4802622;29;20066;-80
2023/12/04 07:36:08;;;;;;;0.00;0.00;;;;;;;8.36;100.00;98122.28;4797718;29;20045;-80
2023/12/04 07:38:33;;;;;;;0.10;0.10;;;;;;;8.24;100.00;98097.53;4819003;29;20030;-80
2023/12/04 07:41:01;;;;;;;0.00;0.00;;;;;;;8.38;100.00;98117.31;4820215;29;20533;-79
2023/12/04 07:43:32;;;;;;;0.00;0.00;;;;;;;8.19;100.00;98093.81;4812237;29;20038;-80
2023/12/04 07:46:06;;;;;;;0.00;0.00;;;;;;;8.46;100.00;98151.25;4792111;29;20033;-80
2023/12/04 07:48:34;;;;;;;0.00;0.00;;;;;;;8.26;100.00;98128.75;4817470;29;20038;-80
2023/12/04 07:51:16;;;;;;;0.00;0.00;;;;;;;8.49;100.00;98169.69;4821260;29;20121;-84
2023/12/04 07:53:47;;;;;;;0.00;0.00;;;;;;;8.18;100.00;98127.56;4822222;29;20062;-80
2023/12/04 07:56:13;;;;;;;0.00;0.00;;;;;;;8.39;100.00;98148.91;4805824;29;20110;-83
2023/12/04 07:58:38;;;;;;;0.00;0.00;;;;;;;8.43;100.00;98160.78;4803917;29;20031;-81
2023/12/04 08:01:05;;;;;;;0.00;0.00;;;;;;;8.37;100.00;98149.22;4808728;29;20065;-82
2023/12/04 08:03:38;;;;;;;0.00;0.00;;;;;;;8.49;100.00;98153.34;4806935;29;20466;-79
2023/12/04 08:06:07;;;;;;;0.00;0.00;;;;;;;8.51;100.00;98157.38;4819329;29;20390;-78
2023/12/04 08:08:35;;;;;;;0.00;0.00;;;;;;;8.25;100.00;98129.06;4817400;29;20034;-77
2023/12/04 08:11:01;;;;;;;0.00;0.00;;;;;;;8.43;100.00;98168.16;4808660;29;20080;-78
2023/12/04 08:13:26;;;;;;;0.00;0.00;;;;;;;8.31;100.00;98152.34;4811611;29;20035;-79
2023/12/04 08:15:54;;;;;;;0.00;0.00;;;;;;;8.30;100.00;98157.00;4793935;29;20035;-78
2023/12/04 08:18:20;;;;;;;0.00;0.00;;;;;;;8.36;100.00;98160.41;4805305;29;20122;-78
2023/12/04 08:20:48;;;;;;;0.00;0.00;;;;;;;8.16;100.00;98127.09;4808693;29;20454;-78
2023/12/04 08:23:15;;;;;;;0.00;0.00;;;;;;;8.32;100.00;98146.63;4794294;29;20450;-78
2023/12/04 08:25:41;;;;;;;0.00;0.00;;;;;;;8.40;100.00;98145.06;4807507;29;20034;-78
2023/12/04 08:28:14;;;;;;;0.00;0.00;;;;;;;8.27;100.00;98129.59;4804545;29;20043;-77
2023/12/04 08:30:39;;;;;;;0.00;0.00;;;;;;;8.50;100.00;98158.47;4794912;29;20038;-77
2023/12/04 08:33:04;;;;;;;0.00;0.00;;;;;;;8.39;100.00;98138.00;4804512;29;20031;-79
2023/12/04 08:35:30;;;;;;;0.05;0.05;;;;;;;8.27;100.00;98114.03;4791170;29;20430;-78
2023/12/04 08:37:55;;;;;;;0.00;0.00;;;;;;;8.53;100.00;98138.00;4812662;29;20129;-78
2023/12/04 08:40:21;;;;;;;0.00;0.00;;;;;;;8.46;100.00;98135.69;4787158;29;20031;-78
2023/12/04 08:42:50;;;;;;;0.00;0.00;;;;;;;8.49;100.00;98137.81;4801557;29;20034;-79
2023/12/04 08:45:15;;;;;;;0.00;0.00;;;;;;;8.40;100.00;98128.72;4815541;29;20030;-79
2023/12/04 08:47:41;;;;;;;0.00;0.00;;;;;;;8.51;100.00;98146.50;4820206;29;20030;-80
2023/12/04 08:50:14;;;;;;;0.00;0.00;;;;;;;8.53;100.00;98148.91;4801208;29;20042;-80
2023/12/04 08:52:42;;;;;;;0.00;0.00;;;;;;;8.47;100.00;98144.66;4820795;29;20038;-80
2023/12/04 08:55:16;;;;;;;0.00;0.00;;;;;;;8.23;100.00;98101.34;4813193;29;20110;-78
2023/12/04 08:57:42;;;;;;;0.00;0.00;;;;;;;8.36;100.00;98111.38;4822658;29;20092;-79
2023/12/04 09:00:13;;;;;;;0.00;0.00;;;;;;;8.33;100.00;98112.81;4815119;29;20030;-78
2023/12/04 09:02:41;;;;;;;0.00;0.00;;;;;;;8.56;100.00;98137.38;4825360;29;20051;-78
2023/12/04 09:05:07;;;;;;;0.00;0.00;;;;;;;8.37;100.00;98100.19;4822335;29;20983;-80
2023/12/04 09:07:53;;;;;;;0.00;0.00;;;;;;;8.54;100.00;98134.16;4804061;29;20034;-79
2023/12/04 09:10:18;;;;;;;0.00;0.00;;;;;;;8.37;100.00;98113.00;4809472;29;20042;-78
2023/12/04 09:12:46;;;;;;;0.00;0.00;;;;;;;8.37;100.00;98116.53;4819268;29;20033;-79
2023/12/04 09:15:12;;;;;;;0.00;0.00;;;;;;;8.21;100.00;98102.47;4803851;29;20030;-80
2023/12/04 09:17:40;;;;;;;0.00;0.00;;;;;;;8.15;100.00;98090.09;4802390;29;20050;-80
2023/12/04 09:20:09;;;;;;;0.00;0.00;;;;;;;8.16;100.00;98091.69;4820204;29;20035;-78
2023/12/04 09:22:38;;;;;;;0.00;0.00;;;;;;;8.56;100.00;98159.97;4816632;29;20065;-79
2023/12/04 09:25:05;;;;;;;0.00;0.00;;;;;;;8.41;100.00;98143.97;4817710;29;20037;-76
2023/12/04 09:27:31;;;;;;;0.00;0.00;;;;;;;8.35;100.00;98137.81;4803218;29;20434;-78
2023/12/04 09:29:58;;;;;;;0.00;0.00;;;;;;;8.44;100.00;98147.97;4817269;29;20046;-78
2023/12/04 09:32:24;;;;;;;0.00;0.00;;;;;;;8.37;100.00;98146.47;4812816;29;20035;-79
2023/12/04 09:34:50;;;;;;;0.00;0.00;;;;;;;8.30;100.00;98129.75;4805867;29;20084;-79
2023/12/04 09:37:15;;;;;;;0.00;0.00;;;;;;;8.27;100.00;98137.75;4819688;29;20034;-80
2023/12/04 09:40:13;;;;;;;0.00;0.00;;;;;;;8.18;100.00;98130.31;4788670;29;20090;-82
2023/12/04 09:42:58;;;;;;;0.00;0.00;;;;;;;8.19;100.00;98129.19;4791569;29;20066;-83
2023/12/04 09:46:07;;;;;;;;;;;;;;;;;;;;;
2023/12/04 09:48:46;;;;;;;0.00;0.00;;;;;;;8.30;100.00;98158.91;4783952;29;20536;-82
2023/12/04 09:51:16;;;;;;;0.00;0.00;;;;;;;8.38;100.00;98169.06;4795423;29;20536;-82
2023/12/04 09:58:15;;;;;;;0.00;0.00;;;;;;;8.10;100.00;98131.00;4710437;30;20044;-83
2023/12/04 10:00:43;;;;;;;0.00;0.00;;;;;;;8.23;100.00;98153.09;4669830;30;20092;-80
2023/12/04 10:03:34;;;;;;;;;;;;;;;;;;;;;
2023/12/04 10:06:15;;;;;;;0.00;0.00;;;;;;;8.00;100.00;98110.28;4729407;30;20869;-81
2023/12/04 10:08:47;;;;;;;0.00;0.00;;;;;;;8.08;100.00;98100.59;4743807;30;20044;-82
2023/12/04 10:11:20;;;;;;;0.00;0.00;;;;;;;8.51;100.00;98171.00;4749304;30;20165;-80
2023/12/04 10:14:15;;;;;;;0.00;0.00;;;;;;;8.16;100.00;98109.94;4739888;30;20028;-79
2023/12/04 10:16:44;;;;;;;0.00;0.00;;;;;;;8.28;100.00;98131.16;4750204;29;20054;-78
2023/12/04 10:19:26;;;;;;;0.00;0.00;;;;;;;8.36;100.00;98139.41;4815592;29;20130;-77
2023/12/04 10:21:59;;;;;;;0.00;0.00;;;;;;;8.38;100.00;98148.09;4822205;29;20030;-78
2023/12/04 10:24:35;;;;;;;0.00;0.00;;;;;;;8.42;100.00;98148.28;4813367;29;20031;-81
2023/12/04 10:27:11;;;;;;;0.00;0.00;;;;;;;8.56;100.00;98176.31;4791127;29;20103;-77
2023/12/04 10:29:50;;;;;;;0.00;0.00;;;;;;;8.66;100.00;98177.19;4797527;29;20126;-79
2023/12/04 10:32:22;;;;;;;0.00;0.00;;;;;;;8.59;100.00;98146.88;4806604;29;20083;-80
2023/12/04 10:34:48;;;;;;;0.00;0.00;;;;;;;8.50;100.00;98142.16;4813035;29;20468;-80
2023/12/04 10:37:31;;;;;;;;;;;;;;;;;;;;;
2023/12/04 10:39:57;;;;;;;0.00;0.00;;;;;;;8.67;100.00;98157.84;4800336;29;20035;-79
2023/12/04 10:42:30;;;;;;;0.00;0.00;;;;;;;8.54;100.00;98134.97;4799119;29;20127;-79
2023/12/04 10:44:57;;;;;;;0.00;0.00;;;;;;;8.65;100.00;98140.19;4818734;29;20134;-79
2023/12/04 10:47:23;;;;;;;0.10;0.10;;;;;;;8.84;100.00;98153.63;4805950;29;20114;-80
2023/12/04 10:49:54;;;;;;;0.00;0.00;;;;;;;8.87;100.00;98142.88;4798454;29;20716;-81
2023/12/04 10:52:36;;;;;;;0.00;0.00;;;;;;;8.81;100.00;98138.69;4803067;29;20054;-83
2023/12/04 10:55:07;;;;;;;0.00;0.00;;;;;;;8.98;100.00;98148.91;4800430;29;20031;-81
2023/12/04 10:57:49;;;;;;;;;;;;;;;;;;;;;
2023/12/04 11:00:16;;;;;;;0.00;0.00;;;;;;;8.91;100.00;98132.97;4797029;29;20035;-79
2023/12/04 11:02:46;;;;;;;0.00;0.00;;;;;;;9.04;100.00;98144.13;4796058;29;20435;-80
2023/12/04 11:05:21;;;;;;;0.00;0.00;;;;;;;8.93;100.00;98132.66;4810975;29;20092;-81
2023/12/04 11:08:05;;;;;;;;;;;;;;;9.09;100.00;98152.16;4802529;29;20041;-81
2023/12/04 11:10:32;;;;;;;0.00;0.00;;;;;;;9.01;100.00;98131.94;4798709;29;19996;-80
2023/12/04 11:13:07;;;;;;;0.00;0.00;;;;;;;8.95;100.00;98116.00;4802139;29;20137;-81
2023/12/04 11:15:47;;;;;;;0.00;0.00;;;;;;;8.91;100.00;98108.44;4815184;29;20410;-80
2023/12/04 11:18:38;;;;;;;0.00;0.00;;;;;;;8.96;100.00;98112.97;4818186;29;20133;-81
2023/12/04 11:21:13;;;;;;;0.00;0.00;;;;;;;8.96;100.00;98112.16;4811406;29;20360;-80
2023/12/04 11:23:50;;;;;;;0.00;0.00;;;;;;;8.97;100.00;98130.13;4799819;29;20045;-80
2023/12/04 11:26:24;;;;;;;0.00;0.00;;;;;;;8.67;100.00;98091.63;4798911;29;20069;-79
2023/12/04 11:28:53;;;;;;;0.00;0.00;;;;;;;8.83;100.00;98114.63;4783772;29;20095;-78
2023/12/04 11:31:20;;;;;;;0.00;0.00;;;;;;;8.82;100.00;98102.16;4798508;29;20061;-80
2023/12/04 11:34:14;;;;;;;;;;;;;;;;;;;;;
2023/12/04 11:37:09;;;;;;;0.00;0.00;;;;;;;8.90;100.00;98076.84;4804877;29;20031;-84
2023/12/04 11:39:56;;;;;;;0.00;0.00;;;;;;;9.20;100.00;98112.63;4810657;29;20043;-84
2023/12/04 11:42:35;;;;;;;0.00;0.00;;;;;;;8.93;100.00;98069.19;4807651;29;20037;-83
2023/12/04 11:45:01;;;;;;;0.00;0.00;;;;;;;9.18;100.00;98103.94;4818452;29;20083;-84
2023/12/04 11:47:31;;;;;;;0.00;0.00;;;;;;;9.08;100.00;98087.84;4809198;29;20030;-83
2023/12/04 11:50:11;;;;;;;0.00;0.00;;;;;;;9.14;100.00;98089.34;4820068;29;20035;-82
2023/12/04 11:52:45;;;;;;;0.00;0.00;;;;;;;9.06;100.00;98068.28;4797001;29;20049;-83
2023/12/04 11:55:11;;;;;;;0.00;0.00;;;;;;;9.34;100.00;98089.91;4786671;29;20393;-82
2023/12/04 11:57:45;;;;;;;0.00;0.00;;;;;;;9.57;100.00;98093.34;4820172;29;20287;-81
2023/12/04 12:00:39;;;;;;;;;;;;;;;;;;;;;
2023/12/04 12:03:21;;;;;;;;;;;;;;;;;;;;;
2023/12/04 12:05:53;;;;;;;0.00;0.00;;;;;;;9.40;100.00;98083.16;4806594;29;20030;-84
2023/12/04 12:08:29;;;;;;;;;;;;;;;;;;;;;
2023/12/04 12:10:57;;;;;;;0.00;0.00;;;;;;;9.16;100.00;98084.38;4818765;29;20034;-79
2023/12/04 12:13:26;;;;;;;0.00;0.00;;;;;;;9.10;100.00;98072.00;4814870;29;20030;-77
2023/12/04 12:15:54;;;;;;;0.00;0.00;;;;;;;9.16;100.00;98084.38;4799428;29;20034;-78
2023/12/04 12:18:23;;;;;;;0.00;0.00;;;;;;;9.40;100.00;98115.91;4815493;29;20030;-79
2023/12/04 12:21:00;;;;;;;0.00;0.00;;;;;;;9.28;100.00;98091.16;4790962;29;20121;-79
2023/12/04 12:24:06;;;;;;;0.00;0.00;;;;;;;9.20;100.00;98071.72;4816512;29;20030;-83
2023/12/04 12:26:35;;;;;;;0.00;0.00;;;;;;;9.28;100.00;98091.94;4800826;29;20042;-83
2023/12/04 12:29:03;;;;;;;0.00;0.00;;;;;;;9.01;100.00;98038.41;4821693;29;20030;-83
2023/12/04 12:31:29;;;;;;;0.00;0.00;;;;;;;9.48;100.00;98112.41;4812746;29;20053;-83
2023/12/04 12:34:05;;;;;;;0.00;0.00;;;;;;;9.30;100.00;98094.38;4820610;29;20026;-85
2023/12/04 12:36:34;;;;;;;0.10;0.10;;;;;;;9.32;100.00;98086.69;4819359;29;20034;-84
2023/12/04 12:39:02;;;;;;;0.00;0.00;;;;;;;9.34;100.00;98084.44;4808574;29;20053;-83